METAR Data
IDs: Format: Raw Decoded Include TAF

Data at: 1534 UTC 21 Sep 2018

KONL 211515Z AUTO 33017G22KT 10SM OVC021 11/06 A3031 RMK AO2 T01100056
KONL 211455Z AUTO 33016G23KT 10SM OVC021 10/05 A3030 RMK AO2 T01000053
KONL 211435Z AUTO 34021G24KT 10SM OVC021 10/06 A3029 RMK AO2 T01030058
KONL 211415Z AUTO 33015G25KT 10SM OVC023 10/05 A3028 RMK AO2 T00970054
KONL 211355Z AUTO 32019G27KT 10SM OVC023 10/05 A3026 RMK AO2 T00960054
KONL 211335Z AUTO 33014G21KT 10SM SCT022 OVC028 10/07 A3025 RMK AO2 T01020066
KONL 211315Z AUTO 33015G22KT 10SM OVC032 10/07 A3024 RMK AO2 T01020066
KONL 211255Z AUTO 32016G23KT 10SM SCT020 OVC032 11/07 A3023 RMK AO2 T01050071
KONL 211235Z AUTO 33010G14KT 10SM BKN022 OVC028 11/08 A3021 RMK AO2 T01070081
KONL 211215Z AUTO 31010KT 10SM OVC030 11/08 A3020 RMK AO2 T01060077
KONL 211155Z AUTO 31012G17KT 10SM BKN030 10/08 A3019 RMK AO2 70051 T01030075 10120 20101
KONL 211135Z AUTO 30013G19KT 10SM CLR 10/07 A3018 RMK AO2 T01020072
KONL 211115Z AUTO 30013KT 10SM CLR 10/08 A3016 RMK AO2 T01030075
KONL 211055Z AUTO 30014G19KT 10SM CLR 11/08 A3014 RMK AO2 T01050076
KONL 211035Z AUTO 30013G18KT 10SM CLR 11/08 A3014 RMK AO2 T01080075
KONL 211015Z AUTO 30013G19KT 10SM CLR 11/08 A3012 RMK AO2 T01100078
KONL 210955Z AUTO 29011G18KT 10SM CLR 11/08 A3011 RMK AO2 T01100081
KONL 210935Z AUTO 29011G15KT 10SM CLR 11/09 A3010 RMK AO2 T01120085
KONL 210915Z AUTO 29010KT 10SM CLR 11/09 A3009 RMK AO2 T01120090
KONL 210855Z AUTO 29010G16KT 10SM CLR 12/09 A3008 RMK AO2 T01150091
KONL 210835Z AUTO 28008KT 10SM CLR 11/09 A3007 RMK AO2 T01130093
KONL 210815Z AUTO 27008KT 10SM CLR 12/10 A3006 RMK AO2 T01150096
KONL 210755Z AUTO 28006KT 10SM CLR 12/10 A3005 RMK AO2 T01170100
KONL 210735Z AUTO 28009KT 10SM CLR 12/10 A3004 RMK AO2 T01190104
KONL 210715Z AUTO 28008KT 10SM CLR 12/11 A3002 RMK AO2 T01180106
KONL 210655Z AUTO 28007KT 10SM CLR 12/11 A3001 RMK AO2 T01160106
KONL 210635Z AUTO 28006KT 10SM CLR 12/11 A3000 RMK AO2 T01160106
KONL 210615Z AUTO 28006KT 10SM CLR 12/11 A3000 RMK AO2 T01150106
KONL 210555Z AUTO 28006KT 10SM CLR 12/11 A3000 RMK AO2 T01170106 10171 20117 402010117
KONL 210535Z AUTO 29007KT 10SM CLR 12/11 A3000 RMK AO2 T01220107
KONL 210515Z AUTO 30007KT 10SM CLR 13/11 A2999 RMK AO2 T01260107
KONL 210455Z AUTO 30010KT 10SM CLR 13/11 A2998 RMK AO2 T01300108
KONL 210435Z AUTO 30009KT 10SM CLR 13/11 A2997 RMK AO2 T01310110
KONL 210415Z AUTO 30010G17KT 10SM CLR 14/11 A2996 RMK AO2 T01350111
KONL 210355Z AUTO 30010KT 10SM CLR 14/11 A2996 RMK AO2 T01370112
KONL 210335Z AUTO 30010G15KT 10SM SCT018 14/11 A2995 RMK AO2 T01390112
KONL 210315Z AUTO 31012G17KT 10SM OVC018 14/11 A2993 RMK AO2 T01430112
KONL 210250Z AUTO 31013G19KT 10SM OVC018 15/11 A2991 RMK AO2 T01450112
KONL 210235Z AUTO 32015G20KT 10SM OVC018 15/11 A2990 RMK AO2 T01450112
KONL 210215Z AUTO 31015G28KT 10SM OVC018 15/11 A2988 RMK AO2 T01460112
KONL 210155Z AUTO 31014G23KT 10SM OVC018 15/11 A2988 RMK AO2 T01490114
KONL 210135Z AUTO 31018G25KT 10SM OVC018 15/12 A2987 RMK AO2 T01530120
KONL 210115Z AUTO 31014G24KT 10SM OVC018 16/13 A2985 RMK AO2 T01550128
KONL 210055Z AUTO 31011G21KT 10SM OVC020 16/13 A2983 RMK AO2 T01570131
KONL 210035Z AUTO 31010G23KT 10SM OVC018 16/14 A2981 RMK AO2 T01600135
KONL 210015Z AUTO 31017G20KT 10SM OVC018 17/14 A2979 RMK AO2 T01670141
KONL 202355Z AUTO 31013G18KT 10SM OVC016 17/15 A2978 RMK AO2 60051 T01720148 10201 20172
KONL 202335Z AUTO 30012G16KT 10SM OVC016 18/15 A2976 RMK AO2 LTG DSNT SE T01760154
KONL 202315Z AUTO 29011G16KT 10SM OVC016 18/16 A2976 RMK AO2 T01800157
KONL 202255Z AUTO 29010G17KT 10SM OVC014 18/16 A2976 RMK AO2 T01810162
KONL 202235Z AUTO 31013G17KT 10SM BKN012 BKN017 19/17 A2975 RMK AO2 T01850165
KONL 202215Z AUTO 30014G17KT 10SM SCT010 OVC017 18/17 A2975 RMK AO2 T01820167
KONL 202155Z AUTO 30010KT 10SM BKN008 OVC013 18/17 A2975 RMK AO2 T01810170
KONL 202135Z AUTO 29010G15KT 10SM BKN006 OVC011 18/18 A2974 RMK AO2 T01830175
KONL 202115Z AUTO 29011G15KT 10SM OVC006 19/18 A2974 RMK AO2 T01900181
KONL 202055Z AUTO 28012KT 10SM BKN006 OVC010 19/18 A2973 RMK AO2 60051 T01920184
KONL 202035Z AUTO 26010G15KT 10SM OVC008 20/19 A2971 RMK AO2 LTG DSNT NE AND NW T02000190
KONL 202015Z AUTO 26009KT 10SM -RA BKN006 BKN047 OVC110 20/19 A2971 RMK AO2 LTG DSNT E T02000194
KONL 201955Z AUTO 18005KT 10SM -RA SCT006 SCT031 OVC090 20/20 A2966 RMK AO2 LTG DSNT SE P0003 T02000195
KONL 201935Z AUTO 23004KT 10SM -RA SCT004 SCT029 OVC090 20/19 A2968 RMK AO2 LTG DSNT NE P0003 T01980192
KONL 201915Z AUTO 25009KT 10SM -RA BKN004 BKN017 OVC090 20/19 A2971 RMK AO2 P0001 T01980193
KONL 201855Z AUTO 25005KT 3SM BR OVC004 20/19 A2969 RMK AO2 LTG DSNT N AND NE P0048 T01960192
KONL 201835Z AUTO 26003KT 1/2SM /VCTSRA OVC004 19/19 A2970 RMK AO2 LTG DSNT ALQS P0042 T01920189
KONL 201815Z AUTO 25005KT 1 1/2SM VCTS BR OVC004 20/19 A2970 RMK AO2 LTG DSNT N T01970192
KONL 201755Z AUTO 25007KT 3SM BR OVC004 20/19 A2972 RMK AO2 T02000192 10201 20177
KONL 201735Z AUTO 23003KT 4SM BR OVC004 20/20 A2971 RMK AO2 T02000196
KONL 201715Z AUTO 12003KT 3SM BR OVC002 20/20 A2969 RMK AO2 T01970195
KONL 201655Z AUTO 12003KT 1 1/4SM BR OVC002 19/19 A2969 RMK AO2 T01930190
KONL 201635Z AUTO 09006KT 1/2SM VCTS FG OVC002 19/19 A2971 RMK AO2 T01910188
KONL 201615Z AUTO 00000KT 1/2SM FG OVC002 19/19 A2973 RMK AO2 T01870185
KONL 201555Z AUTO 10006KT 1/4SM FG OVC002 19/18 A2973 RMK AO2 T01860183
KONL 201535Z AUTO 09009KT 1/2SM FG OVC002 19/18 A2974 RMK AO2 T01850182
KONL 201515Z AUTO 10012KT 1/2SM FG OVC002 18/18 A2974 RMK AO2 LTG DSNT NE T01830180
KONL 201455Z AUTO 09009G16KT 1/2SM FG OVC002 18/18 A2975 RMK AO2 LTG DSNT NE T01820180
KONL 201435Z AUTO 08012KT 1/2SM FG OVC002 18/18 A2975 RMK AO2 T01810178
KONL 201415Z AUTO 09012KT 1/2SM FG OVC002 18/18 A2974 RMK AO2 LTG DSNT E T01810177
KONL 201355Z AUTO 09013KT 2 1/2SM BR OVC002 18/18 A2974 RMK AO2 LTG DSNT E T01800177
KONL 201335Z AUTO 08012KT 5SM VCTS BR OVC002 18/18 A2976 RMK AO2 LTG DSNT E T01800176
KONL 201315Z AUTO 09010G15KT 10SM OVC004 18/18 A2976 RMK AO2 LTG DSNT E T01800176
KONL 201255Z AUTO 08010KT 10SM OVC004 18/18 A2977 RMK AO2 LTG DSNT E AND SE T01790175
KONL 201235Z AUTO 07010KT 10SM OVC004 18/18 A2976 RMK AO2 LTG DSNT E T01780175
KONL 201215Z AUTO 07009KT 10SM OVC004 18/17 A2977 RMK AO2 T01770174
KONL 201155Z AUTO 07012KT 10SM OVC004 18/17 A2977 RMK AO2 60078 70180 T01770173 10177 20161
KONL 201135Z AUTO 07010KT 10SM OVC004 18/17 A2979 RMK AO2 LTG DSNT E AND SE T01770173
KONL 201115Z AUTO 07011KT 10SM OVC004 18/17 A2978 RMK AO2 LTG DSNT NE AND SE T01760172
KONL 201055Z AUTO 06012G16KT 10SM -RA OVC004 18/17 A2978 RMK AO2 LTG DSNT NE THRU S P0029 T01750171
KONL 201035Z AUTO 05010G14KT 5SM -RA OVC004 18/17 A2979 RMK AO2 LTG DSNT SE AND S P0028 T01750171
KONL 201015Z AUTO 09007KT 2 1/2SM +RA BKN006 OVC017 18/17 A2984 RMK AO2 LTG DSNT NE AND SE P0021 T01760171
KONL 200955Z AUTO 06010G18KT 5SM -TSRA OVC004 18/17 A2981 RMK AO2 LTG DSNT ALQS P0013 T01760171
KONL 200935Z AUTO 06016G19KT 7SM -RA OVC006 18/17 A2979 RMK AO2 LTG DSNT S AND SW P0007 T01750170
KONL 200915Z AUTO 09008KT 10SM -VCTSRA BKN008 BKN015 OVC025 18/17 A2985 RMK AO2 LTG DSNT S AND SW P0001 T01750167
KONL 200855Z AUTO 08012G18KT 10SM -RA SCT008 BKN025 OVC039 17/17 A2982 RMK AO2 LTG DSNT SW P0005 60036 T01720166
KONL 200835Z AUTO 08013KT 10SM -RA SCT015 BKN043 OVC110 17/17 A2982 RMK AO2 P0005 T01700165
KONL 200815Z AUTO 08019G24KT 10SM RA SCT008 BKN050 OVC120 17/16 A2982 RMK AO2 LTG DSNT W P0002 T01680163
KONL 200755Z AUTO 08015G23KT 10SM -RA SCT006 BKN044 OVC050 17/16 A2982 RMK AO2 P0012 T01680163
KONL 200735Z AUTO 08020G25KT 7SM -RA SCT004 OVC046 17/16 A2982 RMK AO2 LTG DSNT SW P0012 T01670162
KONL 200715Z AUTO 08016G19KT 10SM -RA BKN004 BKN017 OVC048 17/16 A2983 RMK AO2 LTG DSNT W P0004 T01670163
KONL 200655Z AUTO 07014G20KT 5SM -RA SCT004 BKN022 OVC048 17/16 A2985 RMK AO2 LTG DSNT SW P0018 T01650160
KONL 200635Z AUTO 04013G19KT 10SM -TSRA BKN004 OVC050 16/16 A2987 RMK AO2 LTG DSNT N P0005 T01630160
KONL 200615Z AUTO 06017G23KT 7SM RA BKN004 BKN034 OVC050 16/16 A2983 RMK AO2 LTG DSNT SW AND W P0004 T01610157
KONL 200555Z AUTO 04015KT 5SM RA OVC004 16/16 A2986 RMK AO2 LTG DSNT SW AND W P0012 60102 T01620158 10246 20161 402610161
KONL 200535Z AUTO 01013KT 10SM -DZ OVC004 16/16 A2989 RMK AO2 LTG DSNT NE SW AND NW T01620158
KONL 200515Z AUTO 03016G24KT 10SM VCTS BKN004 OVC049 16/16 A2985 RMK AO2 LTG DSNT SW THRU N T01620157
KONL 200455Z AUTO 04019KT 10SM -RA BKN004 OVC027 16/16 A2986 RMK AO2 LTG DSNT NE AND NW P0056 T01620157
KONL 200435Z AUTO 36018G26KT 4SM -TSRA BKN004 BKN014 OVC022 18/17 A2988 RMK AO2 LTG DSNT ALQS P0046 T01790174
KONL 200415Z AUTO 35017G21KT 2 1/2SM +TSRA SCT004 BKN013 OVC031 19/18 A2993 RMK AO2 LTG DSNT ALQS P0020 T01860181
KONL 200355Z AUTO 33012KT 5SM +RA BKN004 BKN010 OVC060 19/19 A2991 RMK AO2 LTG DSNT ALQS P0030 T01920187
KONL 200335Z AUTO 34011KT 4SM +TSRA BKN006 OVC012 20/19 A2988 RMK AO2 LTG DSNT ALQS P0020 T01970190